sensor_id;sensor_type;location;lat;lon;timestamp;P1;durP1;ratioP1;P2;durP2;ratioP2
56242;SDS011;42155;53.096;23.226;2022-12-07T00:00:36;9.93;;;4.97;;
56242;SDS011;42155;53.096;23.226;2022-12-07T00:02:37;23.50;;;8.18;;
56242;SDS011;42155;53.096;23.226;2022-12-07T00:04:37;11.88;;;5.68;;
56242;SDS011;42155;53.096;23.226;2022-12-07T00:06:41;15.10;;;7.32;;
56242;SDS011;42155;53.096;23.226;2022-12-07T00:08:43;13.55;;;5.93;;
56242;SDS011;42155;53.096;23.226;2022-12-07T00:10:44;11.75;;;5.68;;
56242;SDS011;42155;53.096;23.226;2022-12-07T00:12:45;11.50;;;5.30;;
56242;SDS011;42155;53.096;23.226;2022-12-07T00:14:46;11.88;;;6.00;;
56242;SDS011;42155;53.096;23.226;2022-12-07T00:16:48;15.48;;;5.75;;
56242;SDS011;42155;53.096;23.226;2022-12-07T00:18:50;10.40;;;5.88;;
56242;SDS011;42155;53.096;23.226;2022-12-07T00:20:50;11.30;;;5.82;;
56242;SDS011;42155;53.096;23.226;2022-12-07T00:22:50;8.82;;;4.82;;
56242;SDS011;42155;53.096;23.226;2022-12-07T00:24:51;10.90;;;5.53;;
56242;SDS011;42155;53.096;23.226;2022-12-07T00:26:51;14.82;;;6.28;;
56242;SDS011;42155;53.096;23.226;2022-12-07T00:28:54;8.05;;;4.63;;
56242;SDS011;42155;53.096;23.226;2022-12-07T00:31:15;10.02;;;5.45;;
56242;SDS011;42155;53.096;23.226;2022-12-07T00:33:16;11.70;;;5.47;;
56242;SDS011;42155;53.096;23.226;2022-12-07T00:35:17;9.40;;;4.70;;
56242;SDS011;42155;53.096;23.226;2022-12-07T00:37:17;10.30;;;4.65;;
56242;SDS011;42155;53.096;23.226;2022-12-07T00:39:17;8.20;;;4.65;;
56242;SDS011;42155;53.096;23.226;2022-12-07T00:41:19;9.05;;;4.40;;
56242;SDS011;42155;53.096;23.226;2022-12-07T00:43:20;11.38;;;4.97;;
56242;SDS011;42155;53.096;23.226;2022-12-07T00:45:21;10.73;;;5.43;;
56242;SDS011;42155;53.096;23.226;2022-12-07T00:47:21;8.70;;;5.38;;
56242;SDS011;42155;53.096;23.226;2022-12-07T00:49:21;10.00;;;5.10;;
56242;SDS011;42155;53.096;23.226;2022-12-07T00:51:23;10.05;;;4.97;;
56242;SDS011;42155;53.096;23.226;2022-12-07T00:53:24;11.70;;;5.45;;
56242;SDS011;42155;53.096;23.226;2022-12-07T00:55:24;8.50;;;4.40;;
56242;SDS011;42155;53.096;23.226;2022-12-07T00:57:25;9.68;;;5.15;;
56242;SDS011;42155;53.096;23.226;2022-12-07T00:59:25;8.38;;;4.55;;
56242;SDS011;42155;53.096;23.226;2022-12-07T01:01:26;8.90;;;4.53;;
56242;SDS011;42155;53.096;23.226;2022-12-07T01:03:28;8.02;;;4.40;;
56242;SDS011;42155;53.096;23.226;2022-12-07T01:05:28;11.23;;;5.10;;
56242;SDS011;42155;53.096;23.226;2022-12-07T01:07:29;9.27;;;5.00;;
56242;SDS011;42155;53.096;23.226;2022-12-07T01:09:29;9.05;;;5.07;;
56242;SDS011;42155;53.096;23.226;2022-12-07T01:11:29;10.25;;;5.53;;
56242;SDS011;42155;53.096;23.226;2022-12-07T01:13:31;6.57;;;4.45;;
56242;SDS011;42155;53.096;23.226;2022-12-07T01:15:31;8.07;;;4.40;;
56242;SDS011;42155;53.096;23.226;2022-12-07T01:17:32;6.82;;;4.38;;
56242;SDS011;42155;53.096;23.226;2022-12-07T01:19:32;9.00;;;5.10;;
56242;SDS011;42155;53.096;23.226;2022-12-07T01:21:33;11.52;;;5.18;;
56242;SDS011;42155;53.096;23.226;2022-12-07T01:23:35;9.60;;;4.18;;
56242;SDS011;42155;53.096;23.226;2022-12-07T01:25:36;11.00;;;5.43;;
56242;SDS011;42155;53.096;23.226;2022-12-07T01:27:37;10.43;;;5.50;;
56242;SDS011;42155;53.096;23.226;2022-12-07T01:29:37;9.43;;;5.28;;
56242;SDS011;42155;53.096;23.226;2022-12-07T01:31:38;10.25;;;6.15;;
56242;SDS011;42155;53.096;23.226;2022-12-07T01:33:38;10.15;;;5.50;;
56242;SDS011;42155;53.096;23.226;2022-12-07T01:35:39;9.73;;;5.00;;
56242;SDS011;42155;53.096;23.226;2022-12-07T01:37:39;10.95;;;5.05;;
56242;SDS011;42155;53.096;23.226;2022-12-07T01:39:39;11.57;;;5.20;;
56242;SDS011;42155;53.096;23.226;2022-12-07T01:41:40;9.57;;;4.60;;
56242;SDS011;42155;53.096;23.226;2022-12-07T01:44:07;13.00;;;5.40;;
56242;SDS011;42155;53.096;23.226;2022-12-07T01:46:13;8.70;;;4.90;;
56242;SDS011;42155;53.096;23.226;2022-12-07T01:48:14;9.93;;;5.00;;
56242;SDS011;42155;53.096;23.226;2022-12-07T01:50:17;11.73;;;4.75;;
56242;SDS011;42155;53.096;23.226;2022-12-07T01:52:23;8.90;;;5.32;;
56242;SDS011;42155;53.096;23.226;2022-12-07T01:54:28;8.73;;;4.90;;
56242;SDS011;42155;53.096;23.226;2022-12-07T01:56:28;8.70;;;4.40;;
56242;SDS011;42155;53.096;23.226;2022-12-07T01:58:29;8.95;;;4.93;;
56242;SDS011;42155;53.096;23.226;2022-12-07T02:00:30;10.48;;;5.05;;
56242;SDS011;42155;53.096;23.226;2022-12-07T02:02:34;10.27;;;5.07;;
56242;SDS011;42155;53.096;23.226;2022-12-07T02:04:38;10.02;;;4.57;;
56242;SDS011;42155;53.096;23.226;2022-12-07T02:06:39;9.10;;;4.78;;
56242;SDS011;42155;53.096;23.226;2022-12-07T02:08:41;12.45;;;5.07;;
56242;SDS011;42155;53.096;23.226;2022-12-07T02:10:42;12.02;;;5.45;;
56242;SDS011;42155;53.096;23.226;2022-12-07T02:12:43;10.20;;;5.63;;
56242;SDS011;42155;53.096;23.226;2022-12-07T02:14:46;12.93;;;5.50;;
56242;SDS011;42155;53.096;23.226;2022-12-07T02:16:49;12.65;;;6.10;;
56242;SDS011;42155;53.096;23.226;2022-12-07T02:31:15;11.52;;;5.35;;
56242;SDS011;42155;53.096;23.226;2022-12-07T02:33:28;14.63;;;6.72;;
56242;SDS011;42155;53.096;23.226;2022-12-07T02:35:35;14.15;;;6.43;;
56242;SDS011;42155;53.096;23.226;2022-12-07T02:37:45;12.75;;;5.95;;
56242;SDS011;42155;53.096;23.226;2022-12-07T02:40:01;15.55;;;7.05;;
56242;SDS011;42155;53.096;23.226;2022-12-07T02:42:13;15.02;;;6.53;;
56242;SDS011;42155;53.096;23.226;2022-12-07T02:44:18;17.13;;;6.82;;
56242;SDS011;42155;53.096;23.226;2022-12-07T02:46:32;11.32;;;6.13;;
56242;SDS011;42155;53.096;23.226;2022-12-07T02:48:36;14.23;;;5.97;;
56242;SDS011;42155;53.096;23.226;2022-12-07T02:50:43;11.52;;;6.35;;
56242;SDS011;42155;53.096;23.226;2022-12-07T02:52:45;12.30;;;6.07;;
56242;SDS011;42155;53.096;23.226;2022-12-07T02:54:45;14.23;;;6.50;;
56242;SDS011;42155;53.096;23.226;2022-12-07T02:56:48;19.30;;;7.68;;
56242;SDS011;42155;53.096;23.226;2022-12-07T03:03:30;11.40;;;5.65;;
56242;SDS011;42155;53.096;23.226;2022-12-07T03:05:33;13.10;;;6.25;;
56242;SDS011;42155;53.096;23.226;2022-12-07T03:11:50;12.40;;;6.22;;
56242;SDS011;42155;53.096;23.226;2022-12-07T03:14:17;15.00;;;6.75;;
56242;SDS011;42155;53.096;23.226;2022-12-07T03:16:26;13.50;;;5.97;;
56242;SDS011;42155;53.096;23.226;2022-12-07T03:18:30;12.95;;;6.28;;
56242;SDS011;42155;53.096;23.226;2022-12-07T03:20:36;11.48;;;6.38;;
56242;SDS011;42155;53.096;23.226;2022-12-07T03:22:39;14.93;;;6.40;;
56242;SDS011;42155;53.096;23.226;2022-12-07T03:24:45;17.00;;;7.05;;
56242;SDS011;42155;53.096;23.226;2022-12-07T03:26:53;16.30;;;7.22;;
56242;SDS011;42155;53.096;23.226;2022-12-07T03:29:01;15.90;;;7.05;;
56242;SDS011;42155;53.096;23.226;2022-12-07T03:35:28;13.98;;;6.43;;
56242;SDS011;42155;53.096;23.226;2022-12-07T03:37:51;11.77;;;5.72;;
56242;SDS011;42155;53.096;23.226;2022-12-07T03:40:02;16.13;;;6.65;;
56242;SDS011;42155;53.096;23.226;2022-12-07T03:42:11;12.65;;;6.05;;
56242;SDS011;42155;53.096;23.226;2022-12-07T03:44:12;13.38;;;6.43;;
56242;SDS011;42155;53.096;23.226;2022-12-07T03:48:48;13.95;;;6.35;;
56242;SDS011;42155;53.096;23.226;2022-12-07T03:51:06;11.18;;;6.38;;
56242;SDS011;42155;53.096;23.226;2022-12-07T03:53:20;13.63;;;5.82;;
56242;SDS011;42155;53.096;23.226;2022-12-07T03:55:26;13.45;;;6.15;;
56242;SDS011;42155;53.096;23.226;2022-12-07T03:57:30;11.95;;;5.22;;
56242;SDS011;42155;53.096;23.226;2022-12-07T03:59:33;15.30;;;6.60;;
56242;SDS011;42155;53.096;23.226;2022-12-07T04:01:34;14.75;;;6.65;;
56242;SDS011;42155;53.096;23.226;2022-12-07T04:03:34;14.48;;;6.15;;
56242;SDS011;42155;53.096;23.226;2022-12-07T04:05:34;16.15;;;6.38;;
56242;SDS011;42155;53.096;23.226;2022-12-07T04:07:35;10.82;;;5.65;;
56242;SDS011;42155;53.096;23.226;2022-12-07T04:09:35;13.98;;;6.75;;
56242;SDS011;42155;53.096;23.226;2022-12-07T04:11:36;15.43;;;6.53;;
56242;SDS011;42155;53.096;23.226;2022-12-07T04:13:36;11.10;;;6.10;;
56242;SDS011;42155;53.096;23.226;2022-12-07T04:15:36;12.75;;;6.45;;
56242;SDS011;42155;53.096;23.226;2022-12-07T04:17:37;15.35;;;6.45;;
56242;SDS011;42155;53.096;23.226;2022-12-07T04:19:37;14.00;;;6.72;;
56242;SDS011;42155;53.096;23.226;2022-12-07T04:21:37;12.80;;;5.97;;
56242;SDS011;42155;53.096;23.226;2022-12-07T04:23:38;14.52;;;5.90;;
56242;SDS011;42155;53.096;23.226;2022-12-07T04:25:38;15.15;;;6.35;;
56242;SDS011;42155;53.096;23.226;2022-12-07T04:27:39;14.80;;;6.78;;
56242;SDS011;42155;53.096;23.226;2022-12-07T04:29:39;20.00;;;7.25;;
56242;SDS011;42155;53.096;23.226;2022-12-07T04:31:39;14.32;;;7.05;;
56242;SDS011;42155;53.096;23.226;2022-12-07T04:33:40;17.85;;;7.05;;
56242;SDS011;42155;53.096;23.226;2022-12-07T04:35:41;17.67;;;7.72;;
56242;SDS011;42155;53.096;23.226;2022-12-07T04:37:42;19.52;;;7.05;;
56242;SDS011;42155;53.096;23.226;2022-12-07T04:39:43;14.25;;;6.22;;
56242;SDS011;42155;53.096;23.226;2022-12-07T04:41:43;19.20;;;7.68;;
56242;SDS011;42155;53.096;23.226;2022-12-07T04:43:44;21.17;;;8.70;;
56242;SDS011;42155;53.096;23.226;2022-12-07T04:45:47;27.77;;;8.70;;
56242;SDS011;42155;53.096;23.226;2022-12-07T04:47:48;23.73;;;8.07;;
56242;SDS011;42155;53.096;23.226;2022-12-07T04:49:48;18.35;;;7.22;;
56242;SDS011;42155;53.096;23.226;2022-12-07T04:51:48;20.48;;;8.13;;
56242;SDS011;42155;53.096;23.226;2022-12-07T04:53:49;19.38;;;7.55;;
56242;SDS011;42155;53.096;23.226;2022-12-07T04:55:49;19.60;;;8.07;;
56242;SDS011;42155;53.096;23.226;2022-12-07T04:57:50;15.32;;;7.00;;
56242;SDS011;42155;53.096;23.226;2022-12-07T04:59:50;23.40;;;7.85;;
56242;SDS011;42155;53.096;23.226;2022-12-07T05:01:50;16.23;;;7.78;;
56242;SDS011;42155;53.096;23.226;2022-12-07T05:03:51;17.08;;;7.45;;
56242;SDS011;42155;53.096;23.226;2022-12-07T05:05:51;22.40;;;7.55;;
56242;SDS011;42155;53.096;23.226;2022-12-07T05:07:53;18.40;;;7.65;;
56242;SDS011;42155;53.096;23.226;2022-12-07T05:09:53;15.70;;;7.07;;
56242;SDS011;42155;53.096;23.226;2022-12-07T05:11:53;18.88;;;7.85;;
56242;SDS011;42155;53.096;23.226;2022-12-07T05:13:54;17.35;;;7.78;;
56242;SDS011;42155;53.096;23.226;2022-12-07T05:15:54;14.95;;;7.63;;
56242;SDS011;42155;53.096;23.226;2022-12-07T05:17:54;16.00;;;7.10;;
56242;SDS011;42155;53.096;23.226;2022-12-07T05:19:55;18.80;;;7.82;;
56242;SDS011;42155;53.096;23.226;2022-12-07T05:21:55;17.98;;;8.60;;
56242;SDS011;42155;53.096;23.226;2022-12-07T05:23:55;23.42;;;9.77;;
56242;SDS011;42155;53.096;23.226;2022-12-07T05:25:56;29.70;;;11.25;;
56242;SDS011;42155;53.096;23.226;2022-12-07T05:27:56;25.33;;;10.90;;
56242;SDS011;42155;53.096;23.226;2022-12-07T05:29:57;20.45;;;9.18;;
56242;SDS011;42155;53.096;23.226;2022-12-07T05:31:57;16.88;;;7.57;;
56242;SDS011;42155;53.096;23.226;2022-12-07T05:33:57;25.50;;;10.70;;
56242;SDS011;42155;53.096;23.226;2022-12-07T05:35:58;25.77;;;9.82;;
56242;SDS011;42155;53.096;23.226;2022-12-07T05:37:58;22.42;;;9.90;;
56242;SDS011;42155;53.096;23.226;2022-12-07T05:39:58;22.73;;;11.13;;
56242;SDS011;42155;53.096;23.226;2022-12-07T05:41:59;24.85;;;11.45;;
56242;SDS011;42155;53.096;23.226;2022-12-07T05:43:59;17.13;;;8.10;;
56242;SDS011;42155;53.096;23.226;2022-12-07T05:45:59;20.45;;;8.30;;
56242;SDS011;42155;53.096;23.226;2022-12-07T05:48:00;19.92;;;8.77;;
56242;SDS011;42155;53.096;23.226;2022-12-07T05:50:00;17.45;;;7.65;;
56242;SDS011;42155;53.096;23.226;2022-12-07T05:52:01;18.38;;;7.78;;
56242;SDS011;42155;53.096;23.226;2022-12-07T05:54:01;13.07;;;6.72;;
56242;SDS011;42155;53.096;23.226;2022-12-07T05:56:02;15.05;;;6.68;;
56242;SDS011;42155;53.096;23.226;2022-12-07T05:58:02;16.65;;;7.25;;
56242;SDS011;42155;53.096;23.226;2022-12-07T06:00:03;17.52;;;7.55;;
56242;SDS011;42155;53.096;23.226;2022-12-07T06:02:08;18.85;;;7.43;;
56242;SDS011;42155;53.096;23.226;2022-12-07T06:04:11;16.80;;;7.40;;
56242;SDS011;42155;53.096;23.226;2022-12-07T06:06:11;17.60;;;7.63;;
56242;SDS011;42155;53.096;23.226;2022-12-07T06:08:11;13.63;;;7.20;;
56242;SDS011;42155;53.096;23.226;2022-12-07T06:10:11;16.02;;;7.72;;
56242;SDS011;42155;53.096;23.226;2022-12-07T06:12:12;16.00;;;7.60;;
56242;SDS011;42155;53.096;23.226;2022-12-07T06:14:13;20.17;;;9.32;;
56242;SDS011;42155;53.096;23.226;2022-12-07T06:16:13;16.23;;;7.97;;
56242;SDS011;42155;53.096;23.226;2022-12-07T06:18:13;20.52;;;8.70;;
56242;SDS011;42155;53.096;23.226;2022-12-07T06:20:14;16.77;;;8.02;;
56242;SDS011;42155;53.096;23.226;2022-12-07T06:22:14;18.42;;;8.40;;
56242;SDS011;42155;53.096;23.226;2022-12-07T06:24:15;17.55;;;8.27;;
56242;SDS011;42155;53.096;23.226;2022-12-07T06:26:16;17.63;;;8.80;;
56242;SDS011;42155;53.096;23.226;2022-12-07T06:28:16;27.02;;;9.65;;
56242;SDS011;42155;53.096;23.226;2022-12-07T06:30:16;25.17;;;9.38;;
56242;SDS011;42155;53.096;23.226;2022-12-07T06:32:17;23.75;;;10.10;;
56242;SDS011;42155;53.096;23.226;2022-12-07T06:34:19;32.22;;;10.88;;
56242;SDS011;42155;53.096;23.226;2022-12-07T06:36:20;28.88;;;11.43;;
56242;SDS011;42155;53.096;23.226;2022-12-07T06:38:21;32.35;;;12.15;;
56242;SDS011;42155;53.096;23.226;2022-12-07T06:40:21;32.85;;;13.30;;
56242;SDS011;42155;53.096;23.226;2022-12-07T06:42:22;30.40;;;12.52;;
56242;SDS011;42155;53.096;23.226;2022-12-07T06:44:22;36.67;;;14.07;;
56242;SDS011;42155;53.096;23.226;2022-12-07T06:46:23;44.30;;;14.90;;
56242;SDS011;42155;53.096;23.226;2022-12-07T06:48:24;26.73;;;11.82;;
56242;SDS011;42155;53.096;23.226;2022-12-07T06:50:24;30.50;;;13.52;;
56242;SDS011;42155;53.096;23.226;2022-12-07T06:52:24;36.08;;;15.25;;
56242;SDS011;42155;53.096;23.226;2022-12-07T06:54:25;39.47;;;14.90;;
56242;SDS011;42155;53.096;23.226;2022-12-07T06:56:25;40.00;;;16.02;;
56242;SDS011;42155;53.096;23.226;2022-12-07T06:58:25;33.17;;;14.07;;
56242;SDS011;42155;53.096;23.226;2022-12-07T07:00:26;32.08;;;14.02;;
56242;SDS011;42155;53.096;23.226;2022-12-07T07:02:26;29.30;;;12.60;;
56242;SDS011;42155;53.096;23.226;2022-12-07T07:04:26;33.92;;;13.32;;
56242;SDS011;42155;53.096;23.226;2022-12-07T07:06:27;29.75;;;13.25;;
56242;SDS011;42155;53.096;23.226;2022-12-07T07:08:27;33.10;;;13.27;;
56242;SDS011;42155;53.096;23.226;2022-12-07T07:10:28;30.83;;;13.65;;
56242;SDS011;42155;53.096;23.226;2022-12-07T07:12:28;32.50;;;13.73;;
56242;SDS011;42155;53.096;23.226;2022-12-07T07:14:28;26.38;;;11.35;;
56242;SDS011;42155;53.096;23.226;2022-12-07T07:16:29;26.67;;;11.82;;
56242;SDS011;42155;53.096;23.226;2022-12-07T07:18:30;27.35;;;12.32;;
56242;SDS011;42155;53.096;23.226;2022-12-07T07:20:30;27.90;;;11.82;;
56242;SDS011;42155;53.096;23.226;2022-12-07T07:22:31;32.22;;;14.82;;
56242;SDS011;42155;53.096;23.226;2022-12-07T07:24:31;28.83;;;13.13;;
56242;SDS011;42155;53.096;23.226;2022-12-07T07:26:31;30.33;;;13.07;;
56242;SDS011;42155;53.096;23.226;2022-12-07T07:28:31;28.67;;;12.48;;
56242;SDS011;42155;53.096;23.226;2022-12-07T07:30:32;29.13;;;13.13;;
56242;SDS011;42155;53.096;23.226;2022-12-07T07:32:32;28.75;;;12.00;;
56242;SDS011;42155;53.096;23.226;2022-12-07T07:34:33;28.38;;;12.32;;
56242;SDS011;42155;53.096;23.226;2022-12-07T07:36:33;30.17;;;12.30;;
56242;SDS011;42155;53.096;23.226;2022-12-07T07:38:34;32.45;;;12.98;;
56242;SDS011;42155;53.096;23.226;2022-12-07T07:40:34;29.75;;;12.00;;
56242;SDS011;42155;53.096;23.226;2022-12-07T07:42:35;28.42;;;13.35;;
56242;SDS011;42155;53.096;23.226;2022-12-07T07:44:35;31.00;;;13.18;;
56242;SDS011;42155;53.096;23.226;2022-12-07T07:46:36;30.83;;;13.05;;
56242;SDS011;42155;53.096;23.226;2022-12-07T07:48:36;28.23;;;12.75;;
56242;SDS011;42155;53.096;23.226;2022-12-07T07:50:36;28.92;;;13.07;;
56242;SDS011;42155;53.096;23.226;2022-12-07T07:52:37;30.80;;;13.82;;
56242;SDS011;42155;53.096;23.226;2022-12-07T07:54:37;33.10;;;13.20;;
56242;SDS011;42155;53.096;23.226;2022-12-07T07:56:38;28.10;;;13.65;;
56242;SDS011;42155;53.096;23.226;2022-12-07T07:58:38;31.02;;;13.57;;
56242;SDS011;42155;53.096;23.226;2022-12-07T08:00:38;33.90;;;14.40;;
56242;SDS011;42155;53.096;23.226;2022-12-07T08:02:39;32.38;;;13.90;;
56242;SDS011;42155;53.096;23.226;2022-12-07T08:04:40;34.13;;;13.73;;
56242;SDS011;42155;53.096;23.226;2022-12-07T08:06:41;30.27;;;13.98;;
56242;SDS011;42155;53.096;23.226;2022-12-07T08:08:41;31.73;;;13.90;;
56242;SDS011;42155;53.096;23.226;2022-12-07T08:10:41;31.67;;;13.73;;
56242;SDS011;42155;53.096;23.226;2022-12-07T08:12:42;27.73;;;13.27;;
56242;SDS011;42155;53.096;23.226;2022-12-07T08:14:43;30.27;;;14.02;;
56242;SDS011;42155;53.096;23.226;2022-12-07T08:16:43;30.80;;;14.18;;
56242;SDS011;42155;53.096;23.226;2022-12-07T08:18:43;29.45;;;13.77;;
56242;SDS011;42155;53.096;23.226;2022-12-07T08:20:44;34.78;;;15.10;;
56242;SDS011;42155;53.096;23.226;2022-12-07T08:22:44;34.28;;;14.43;;
56242;SDS011;42155;53.096;23.226;2022-12-07T08:24:45;30.55;;;13.43;;
56242;SDS011;42155;53.096;23.226;2022-12-07T08:26:45;33.33;;;14.55;;
56242;SDS011;42155;53.096;23.226;2022-12-07T08:28:45;29.38;;;13.70;;
56242;SDS011;42155;53.096;23.226;2022-12-07T08:30:46;27.75;;;13.07;;
56242;SDS011;42155;53.096;23.226;2022-12-07T08:32:46;29.70;;;13.95;;
56242;SDS011;42155;53.096;23.226;2022-12-07T08:34:47;28.55;;;13.68;;
56242;SDS011;42155;53.096;23.226;2022-12-07T08:36:47;28.55;;;13.50;;
56242;SDS011;42155;53.096;23.226;2022-12-07T08:38:48;27.90;;;13.13;;
56242;SDS011;42155;53.096;23.226;2022-12-07T08:40:55;28.75;;;14.43;;
56242;SDS011;42155;53.096;23.226;2022-12-07T08:42:55;28.48;;;13.70;;
56242;SDS011;42155;53.096;23.226;2022-12-07T08:44:56;28.80;;;13.45;;
56242;SDS011;42155;53.096;23.226;2022-12-07T08:46:58;28.00;;;13.65;;
56242;SDS011;42155;53.096;23.226;2022-12-07T08:49:09;29.83;;;15.05;;
56242;SDS011;42155;53.096;23.226;2022-12-07T08:51:13;23.98;;;12.38;;
56242;SDS011;42155;53.096;23.226;2022-12-07T08:53:13;28.58;;;13.80;;
56242;SDS011;42155;53.096;23.226;2022-12-07T08:55:14;25.02;;;12.77;;
56242;SDS011;42155;53.096;23.226;2022-12-07T08:57:14;29.83;;;14.15;;
56242;SDS011;42155;53.096;23.226;2022-12-07T08:59:15;28.90;;;13.82;;
56242;SDS011;42155;53.096;23.226;2022-12-07T09:01:17;30.17;;;14.23;;
56242;SDS011;42155;53.096;23.226;2022-12-07T09:03:18;23.45;;;12.52;;
56242;SDS011;42155;53.096;23.226;2022-12-07T09:05:18;26.70;;;12.25;;
56242;SDS011;42155;53.096;23.226;2022-12-07T09:07:19;24.38;;;12.65;;
56242;SDS011;42155;53.096;23.226;2022-12-07T09:09:19;22.73;;;11.77;;
56242;SDS011;42155;53.096;23.226;2022-12-07T09:11:19;23.65;;;11.88;;
56242;SDS011;42155;53.096;23.226;2022-12-07T09:13:20;21.30;;;11.32;;
56242;SDS011;42155;53.096;23.226;2022-12-07T09:15:20;22.80;;;11.93;;
56242;SDS011;42155;53.096;23.226;2022-12-07T09:17:20;23.20;;;12.15;;
56242;SDS011;42155;53.096;23.226;2022-12-07T09:19:21;21.83;;;11.60;;
56242;SDS011;42155;53.096;23.226;2022-12-07T09:21:21;23.40;;;12.43;;
56242;SDS011;42155;53.096;23.226;2022-12-07T09:23:22;23.65;;;11.82;;
56242;SDS011;42155;53.096;23.226;2022-12-07T09:25:22;23.33;;;12.15;;
56242;SDS011;42155;53.096;23.226;2022-12-07T09:27:23;23.30;;;12.13;;
56242;SDS011;42155;53.096;23.226;2022-12-07T09:29:24;22.35;;;12.75;;
56242;SDS011;42155;53.096;23.226;2022-12-07T09:31:25;25.25;;;12.48;;
56242;SDS011;42155;53.096;23.226;2022-12-07T09:33:25;23.83;;;12.23;;
56242;SDS011;42155;53.096;23.226;2022-12-07T09:35:26;25.10;;;12.13;;
56242;SDS011;42155;53.096;23.226;2022-12-07T09:37:26;24.10;;;12.25;;
56242;SDS011;42155;53.096;23.226;2022-12-07T09:39:26;22.13;;;12.07;;
56242;SDS011;42155;53.096;23.226;2022-12-07T09:41:27;25.35;;;13.55;;
56242;SDS011;42155;53.096;23.226;2022-12-07T09:43:30;22.30;;;10.85;;
56242;SDS011;42155;53.096;23.226;2022-12-07T09:45:32;21.90;;;11.50;;
56242;SDS011;42155;53.096;23.226;2022-12-07T09:47:35;19.92;;;10.35;;
56242;SDS011;42155;53.096;23.226;2022-12-07T09:49:35;20.27;;;10.90;;
56242;SDS011;42155;53.096;23.226;2022-12-07T09:51:35;18.88;;;10.63;;
56242;SDS011;42155;53.096;23.226;2022-12-07T09:53:37;19.58;;;10.70;;
56242;SDS011;42155;53.096;23.226;2022-12-07T09:55:38;19.95;;;10.75;;
56242;SDS011;42155;53.096;23.226;2022-12-07T09:57:41;15.05;;;9.73;;
56242;SDS011;42155;53.096;23.226;2022-12-07T09:59:42;20.92;;;10.38;;
56242;SDS011;42155;53.096;23.226;2022-12-07T10:01:43;20.90;;;11.27;;
56242;SDS011;42155;53.096;23.226;2022-12-07T10:03:52;19.00;;;11.23;;
56242;SDS011;42155;53.096;23.226;2022-12-07T10:05:54;18.80;;;10.05;;
56242;SDS011;42155;53.096;23.226;2022-12-07T10:07:55;16.98;;;10.23;;
56242;SDS011;42155;53.096;23.226;2022-12-07T10:09:55;16.20;;;10.05;;
56242;SDS011;42155;53.096;23.226;2022-12-07T10:12:06;19.35;;;10.27;;
56242;SDS011;42155;53.096;23.226;2022-12-07T10:14:12;16.05;;;9.77;;
56242;SDS011;42155;53.096;23.226;2022-12-07T10:18:41;15.00;;;9.00;;
56242;SDS011;42155;53.096;23.226;2022-12-07T10:20:41;15.98;;;9.55;;
56242;SDS011;42155;53.096;23.226;2022-12-07T10:22:55;17.55;;;10.55;;
56242;SDS011;42155;53.096;23.226;2022-12-07T10:24:56;20.73;;;10.60;;
56242;SDS011;42155;53.096;23.226;2022-12-07T10:31:36;20.65;;;11.63;;
56242;SDS011;42155;53.096;23.226;2022-12-07T10:34:14;25.08;;;12.05;;
56242;SDS011;42155;53.096;23.226;2022-12-07T10:38:28;19.85;;;11.63;;
56242;SDS011;42155;53.096;23.226;2022-12-07T10:42:32;20.13;;;10.27;;
56242;SDS011;42155;53.096;23.226;2022-12-07T10:44:33;26.83;;;11.40;;
56242;SDS011;42155;53.096;23.226;2022-12-07T10:46:49;23.92;;;11.93;;
56242;SDS011;42155;53.096;23.226;2022-12-07T10:51:56;24.25;;;12.02;;
56242;SDS011;42155;53.096;23.226;2022-12-07T10:56:29;18.33;;;9.63;;
56242;SDS011;42155;53.096;23.226;2022-12-07T11:11:56;10.98;;;7.07;;
56242;SDS011;42155;53.096;23.226;2022-12-07T11:25:50;9.32;;;6.35;;
56242;SDS011;42155;53.096;23.226;2022-12-07T11:30:23;11.95;;;7.00;;
56242;SDS011;42155;53.096;23.226;2022-12-07T11:36:57;10.80;;;6.55;;
56242;SDS011;42155;53.096;23.226;2022-12-07T11:39:04;9.02;;;5.68;;
56242;SDS011;42155;53.096;23.226;2022-12-07T11:41:17;10.23;;;6.53;;
56242;SDS011;42155;53.096;23.226;2022-12-07T11:43:27;11.90;;;6.15;;
56242;SDS011;42155;53.096;23.226;2022-12-07T11:45:34;10.50;;;6.30;;
56242;SDS011;42155;53.096;23.226;2022-12-07T11:47:54;10.77;;;6.55;;
56242;SDS011;42155;53.096;23.226;2022-12-07T11:50:22;9.43;;;5.80;;
56242;SDS011;42155;53.096;23.226;2022-12-07T11:52:47;9.70;;;5.65;;
56242;SDS011;42155;53.096;23.226;2022-12-07T11:54:53;10.13;;;6.30;;
56242;SDS011;42155;53.096;23.226;2022-12-07T11:56:54;9.90;;;5.75;;
56242;SDS011;42155;53.096;23.226;2022-12-07T11:59:19;10.88;;;6.30;;
56242;SDS011;42155;53.096;23.226;2022-12-07T12:03:31;7.32;;;5.10;;
56242;SDS011;42155;53.096;23.226;2022-12-07T12:05:36;8.55;;;5.30;;
56242;SDS011;42155;53.096;23.226;2022-12-07T12:07:39;9.18;;;5.20;;
56242;SDS011;42155;53.096;23.226;2022-12-07T12:10:00;7.50;;;5.15;;
56242;SDS011;42155;53.096;23.226;2022-12-07T12:21:27;8.80;;;5.15;;
56242;SDS011;42155;53.096;23.226;2022-12-07T12:23:51;9.02;;;5.10;;
56242;SDS011;42155;53.096;23.226;2022-12-07T12:25:56;8.73;;;5.13;;
56242;SDS011;42155;53.096;23.226;2022-12-07T12:27:59;7.97;;;5.22;;
56242;SDS011;42155;53.096;23.226;2022-12-07T12:30:23;7.43;;;4.68;;
56242;SDS011;42155;53.096;23.226;2022-12-07T12:32:40;7.85;;;4.78;;
56242;SDS011;42155;53.096;23.226;2022-12-07T12:36:46;7.43;;;4.82;;
56242;SDS011;42155;53.096;23.226;2022-12-07T12:38:51;8.20;;;4.50;;
56242;SDS011;42155;53.096;23.226;2022-12-07T12:41:08;7.95;;;4.88;;
56242;SDS011;42155;53.096;23.226;2022-12-07T12:43:49;8.88;;;5.30;;
56242;SDS011;42155;53.096;23.226;2022-12-07T12:45:51;9.95;;;5.43;;
56242;SDS011;42155;53.096;23.226;2022-12-07T12:48:30;10.48;;;5.38;;
56242;SDS011;42155;53.096;23.226;2022-12-07T12:50:37;9.05;;;5.10;;
56242;SDS011;42155;53.096;23.226;2022-12-07T12:54:38;10.07;;;5.18;;
56242;SDS011;42155;53.096;23.226;2022-12-07T13:04:25;11.82;;;5.82;;
56242;SDS011;42155;53.096;23.226;2022-12-07T13:06:34;10.23;;;5.25;;
56242;SDS011;42155;53.096;23.226;2022-12-07T13:08:37;8.80;;;5.40;;
56242;SDS011;42155;53.096;23.226;2022-12-07T13:10:42;13.23;;;5.70;;
56242;SDS011;42155;53.096;23.226;2022-12-07T13:12:54;12.35;;;6.28;;
56242;SDS011;42155;53.096;23.226;2022-12-07T13:14:57;12.15;;;6.00;;
56242;SDS011;42155;53.096;23.226;2022-12-07T13:16:58;12.50;;;6.47;;
56242;SDS011;42155;53.096;23.226;2022-12-07T13:18:59;13.75;;;6.90;;
56242;SDS011;42155;53.096;23.226;2022-12-07T13:23:03;15.20;;;7.28;;
56242;SDS011;42155;53.096;23.226;2022-12-07T13:27:39;13.80;;;7.45;;
56242;SDS011;42155;53.096;23.226;2022-12-07T13:29:43;13.10;;;7.25;;
56242;SDS011;42155;53.096;23.226;2022-12-07T13:31:47;12.32;;;7.13;;
56242;SDS011;42155;53.096;23.226;2022-12-07T13:33:49;15.00;;;8.00;;
56242;SDS011;42155;53.096;23.226;2022-12-07T13:35:53;15.23;;;7.57;;
56242;SDS011;42155;53.096;23.226;2022-12-07T13:37:54;16.15;;;8.05;;
56242;SDS011;42155;53.096;23.226;2022-12-07T13:40:01;15.57;;;8.60;;
56242;SDS011;42155;53.096;23.226;2022-12-07T13:42:32;16.50;;;8.77;;